createdAt,value
2023-03-16T00:01:34.636Z,97.10
2023-03-16T00:04:38.348Z,97.20
2023-03-16T00:07:43.144Z,97.30
2023-03-16T00:10:46.964Z,97.00
2023-03-16T00:13:49.836Z,96.60
2023-03-16T00:16:53.364Z,96.50
2023-03-16T00:19:57.838Z,96.70
2023-03-16T00:23:02.721Z,96.60
2023-03-16T00:26:07.829Z,96.40
2023-03-16T00:29:11.947Z,96.20
2023-03-16T00:32:17.482Z,96.20
2023-03-16T00:35:21.606Z,96.20
2023-03-16T00:38:25.803Z,96.30
2023-03-16T00:41:28.661Z,96.50
2023-03-16T00:44:32.109Z,96.70
2023-03-16T00:47:35.982Z,96.90
2023-03-16T00:50:38.986Z,96.90
2023-03-16T00:53:44.702Z,96.80
2023-03-16T00:56:47.585Z,96.80
2023-03-16T00:59:50.911Z,96.50
2023-03-16T01:02:53.786Z,96.30
2023-03-16T01:05:59.819Z,96.30
2023-03-16T01:09:05.461Z,96.30
2023-03-16T01:12:10.728Z,96.30
2023-03-16T01:15:13.730Z,96.30
2023-03-16T01:18:16.588Z,96.30
2023-03-16T01:21:21.687Z,96.20
2023-03-16T01:24:25.887Z,96.30
2023-03-16T01:27:28.731Z,96.40
2023-03-16T01:30:31.636Z,96.50
2023-03-16T01:33:35.075Z,96.70
2023-03-16T01:36:37.930Z,96.80
2023-03-16T01:39:42.116Z,96.80
2023-03-16T01:42:49.006Z,96.90
2023-03-16T01:46:18.246Z,96.90
2023-03-16T01:49:25.188Z,96.70
2023-03-16T01:52:33.297Z,96.60
2023-03-16T01:55:37.616Z,96.40
2023-03-16T01:58:43.151Z,96.50
2023-03-16T02:01:47.765Z,96.50
2023-03-16T02:04:54.451Z,96.40
2023-03-16T02:07:58.940Z,96.50
2023-03-16T02:11:04.874Z,96.50
2023-03-16T02:14:10.989Z,96.40
2023-03-16T02:17:15.527Z,96.30
2023-03-16T02:20:30.688Z,96.40
2023-03-16T02:23:33.628Z,96.60
2023-03-16T02:26:44.810Z,96.40
2023-03-16T02:30:03.315Z,96.40
2023-03-16T02:33:06.441Z,96.40
2023-03-16T02:36:10.211Z,96.30
2023-03-16T02:39:13.061Z,96.30
2023-03-16T02:42:18.898Z,96.40
2023-03-16T02:45:25.672Z,96.40
2023-03-16T02:48:32.738Z,96.50
2023-03-16T02:51:35.837Z,96.70
2023-03-16T02:54:38.845Z,96.60
2023-03-16T02:57:41.708Z,96.60
2023-03-16T03:00:46.321Z,96.20
2023-03-16T03:03:49.189Z,96.50
2023-03-16T03:06:52.376Z,96.60
2023-03-16T03:09:55.206Z,96.50
2023-03-16T03:12:58.426Z,96.40
2023-03-16T03:16:02.751Z,96.50
2023-03-16T03:19:05.697Z,96.60
2023-03-16T03:22:09.044Z,96.60
2023-03-16T03:25:12.278Z,96.70
2023-03-16T03:28:15.506Z,96.80
2023-03-16T03:31:22.004Z,96.80
2023-03-16T03:34:25.038Z,96.90
2023-03-16T03:37:28.823Z,96.80
2023-03-16T03:40:31.681Z,97.00
2023-03-16T03:43:34.943Z,96.90
2023-03-16T03:46:39.564Z,96.90
2023-03-16T03:49:42.496Z,97.20
2023-03-16T03:52:45.382Z,97.30
2023-03-16T03:55:49.887Z,97.40
2023-03-16T03:58:52.814Z,97.60
2023-03-16T04:01:57.354Z,97.50
2023-03-16T04:05:00.310Z,97.30
2023-03-16T04:08:03.181Z,97.40
2023-03-16T04:11:06.313Z,97.30
2023-03-16T04:14:09.496Z,97.20
2023-03-16T04:17:14.030Z,97.10
2023-03-16T04:20:19.481Z,97.10
2023-03-16T04:23:24.952Z,97.10
2023-03-16T04:26:27.879Z,97.20
2023-03-16T04:29:32.020Z,97.10
2023-03-16T04:32:36.304Z,97.10
2023-03-16T04:35:39.270Z,97.10
2023-03-16T04:38:42.270Z,97.10
2023-03-16T04:41:45.155Z,97.10
2023-03-16T04:44:48.114Z,97.10
2023-03-16T04:47:52.336Z,97.00
2023-03-16T04:50:55.238Z,97.00
2023-03-16T04:53:58.544Z,96.90
2023-03-16T04:57:03.591Z,96.80
2023-03-16T05:00:11.690Z,96.90
2023-03-16T05:03:16.224Z,96.90
2023-03-16T05:06:19.092Z,97.00
2023-03-16T05:09:22.019Z,97.00
2023-03-16T05:12:24.982Z,97.00
2023-03-16T05:15:28.292Z,97.00
2023-03-16T05:18:33.169Z,97.20
2023-03-16T05:21:37.720Z,97.20
2023-03-16T05:24:40.621Z,97.30
2023-03-16T05:27:43.796Z,97.30
2023-03-16T05:30:46.857Z,97.30
2023-03-16T05:33:51.087Z,97.40
2023-03-16T05:36:54.142Z,97.50
2023-03-16T05:39:57.676Z,97.60
2023-03-16T05:43:00.970Z,97.70
2023-03-16T05:46:03.946Z,97.60
2023-03-16T05:49:08.350Z,97.80
2023-03-16T05:52:11.298Z,97.90
2023-03-16T05:55:15.650Z,98.40
2023-03-16T05:58:18.493Z,98.40
2023-03-16T06:01:22.035Z,98.30
2023-03-16T06:04:26.976Z,98.40
2023-03-16T06:07:29.864Z,98.80
2023-03-16T06:10:32.752Z,98.80
2023-03-16T06:13:35.971Z,99.00
2023-03-16T06:16:38.875Z,99.00
2023-03-16T06:19:43.171Z,99.10
2023-03-16T06:22:46.356Z,99.00
2023-03-16T06:25:49.756Z,99.90
2023-03-16T06:28:52.593Z,99.90
2023-03-16T06:31:55.519Z,99.60
2023-03-16T06:35:02.222Z,99.90
2023-03-16T06:38:05.098Z,99.40
2023-03-16T06:41:07.994Z,99.60
2023-03-16T06:44:11.534Z,99.90
2023-03-16T06:47:14.862Z,99.90
2023-03-16T06:50:19.391Z,99.90
2023-03-16T06:53:22.719Z,99.90
2023-03-16T06:56:27.865Z,99.70
2023-03-16T06:59:31.366Z,99.90
2023-03-16T07:02:35.768Z,99.90
2023-03-16T07:05:40.140Z,99.90
2023-03-16T07:08:43.425Z,99.90
2023-03-16T07:11:46.311Z,99.90
2023-03-16T07:14:52.397Z,99.60
2023-03-16T07:17:56.614Z,99.50
2023-03-16T07:21:00.826Z,99.40
2023-03-16T07:24:03.674Z,99.30
2023-03-16T07:27:06.681Z,99.30
2023-03-16T07:30:12.128Z,99.00
2023-03-16T07:33:15.448Z,99.10
2023-03-16T07:36:20.607Z,98.90
2023-03-16T07:39:23.897Z,98.90
2023-03-16T07:42:26.779Z,98.80
2023-03-16T07:45:29.931Z,98.80
2023-03-16T07:48:33.246Z,98.30
2023-03-16T07:51:37.492Z,98.10
2023-03-16T07:54:41.136Z,98.60
2023-03-16T07:57:48.071Z,98.80
2023-03-16T08:00:51.168Z,98.50
2023-03-16T08:03:54.564Z,97.90
2023-03-16T08:07:00.358Z,97.60
2023-03-16T08:10:03.364Z,97.60
2023-03-16T08:13:06.359Z,97.50
2023-03-16T08:16:10.640Z,97.50
2023-03-16T08:19:13.714Z,97.40
2023-03-16T08:22:17.984Z,98.00
2023-03-16T08:25:21.025Z,98.00
2023-03-16T08:28:25.954Z,99.30
2023-03-16T08:31:30.308Z,98.70
2023-03-16T08:34:33.340Z,98.50
2023-03-16T08:37:37.623Z,98.60
2023-03-16T08:40:46.907Z,98.40
2023-03-16T08:43:52.274Z,98.20
2023-03-16T08:46:55.278Z,98.20
2023-03-16T08:49:58.759Z,98.20
2023-03-16T08:53:02.973Z,97.90
2023-03-16T08:56:07.748Z,97.80
2023-03-16T08:59:27.051Z,98.00
2023-03-16T09:02:32.640Z,97.30
2023-03-16T09:05:35.802Z,97.10
2023-03-16T09:08:40.676Z,97.50
2023-03-16T09:11:43.848Z,98.00
2023-03-16T09:14:46.728Z,96.70
2023-03-16T09:17:50.516Z,97.40
2023-03-16T09:20:53.492Z,96.90
2023-03-16T09:23:57.722Z,96.60
2023-03-16T09:27:00.589Z,96.50
2023-03-16T09:30:04.964Z,95.70
2023-03-16T09:33:08.015Z,95.00
2023-03-16T09:36:12.332Z,96.00
2023-03-16T09:39:16.538Z,95.20
2023-03-16T09:42:26.341Z,95.10
2023-03-16T09:45:36.956Z,94.00
2023-03-16T09:48:42.309Z,93.30
2023-03-16T09:51:49.726Z,93.30
2023-03-16T09:54:59.788Z,94.40
2023-03-16T09:58:06.858Z,93.10
2023-03-16T10:01:18.973Z,93.50
2023-03-16T10:04:42.594Z,94.10
2023-03-16T10:07:55.068Z,93.60
2023-03-16T10:11:25.618Z,92.70
2023-03-16T10:14:34.689Z,91.90
2023-03-16T10:17:43.238Z,91.70
2023-03-16T10:20:48.027Z,91.00
2023-03-16T10:23:52.122Z,89.80
2023-03-16T10:27:00.519Z,91.60
2023-03-16T10:30:07.259Z,91.00
2023-03-16T10:33:19.704Z,90.90
2023-03-16T10:36:28.601Z,90.80
2023-03-16T10:39:37.278Z,91.00
2023-03-16T10:42:41.567Z,90.10
2023-03-16T10:45:44.753Z,89.80
2023-03-16T10:48:54.678Z,86.80
2023-03-16T10:52:01.243Z,88.10
2023-03-16T10:55:11.872Z,86.60
2023-03-16T10:58:26.207Z,86.90
2023-03-16T11:01:30.607Z,86.90
2023-03-16T11:04:34.666Z,84.40
2023-03-16T11:07:39.203Z,88.10
2023-03-16T11:10:55.747Z,84.90
2023-03-16T11:14:02.631Z,83.90
2023-03-16T11:17:12.240Z,82.10
2023-03-16T11:20:18.293Z,80.30
2023-03-16T11:23:29.365Z,81.50
2023-03-16T11:26:36.029Z,79.30
2023-03-16T11:29:51.229Z,75.60
2023-03-16T11:32:54.813Z,80.70
2023-03-16T11:36:11.516Z,79.80
2023-03-16T11:39:32.806Z,76.30
2023-03-16T11:42:40.056Z,79.60
2023-03-16T11:45:52.853Z,74.10
2023-03-16T11:49:10.139Z,73.90
2023-03-16T11:52:19.618Z,76.10
2023-03-16T11:55:32.402Z,75.80
2023-03-16T11:58:50.413Z,74.90
2023-03-16T12:02:07.284Z,75.10
2023-03-16T12:05:37.251Z,72.00
2023-03-16T12:08:57.495Z,71.50
2023-03-16T12:12:05.085Z,71.30
2023-03-16T12:15:21.406Z,69.30
2023-03-16T12:18:31.091Z,68.10
2023-03-16T12:21:38.654Z,67.90
2023-03-16T12:24:46.056Z,67.80
2023-03-16T12:27:53.890Z,66.80
2023-03-16T12:31:09.466Z,65.80
2023-03-16T12:34:26.736Z,66.90
2023-03-16T12:37:37.283Z,64.90
2023-03-16T12:40:47.570Z,63.10
2023-03-16T12:44:03.895Z,63.80
2023-03-16T12:47:16.170Z,62.80
2023-03-16T12:50:22.374Z,62.80
2023-03-16T12:53:30.440Z,61.40
2023-03-16T12:56:36.149Z,61.30
2023-03-16T12:59:42.830Z,62.80
2023-03-16T13:02:51.666Z,61.50
2023-03-16T13:05:59.508Z,58.90
2023-03-16T13:09:04.823Z,59.20
2023-03-16T13:12:07.915Z,58.30
2023-03-16T13:15:29.574Z,58.50
2023-03-16T13:18:38.632Z,56.10
2023-03-16T13:21:43.747Z,55.20
2023-03-16T13:24:53.053Z,55.00
2023-03-16T13:27:58.255Z,56.70
2023-03-16T13:31:02.717Z,55.80
2023-03-16T13:34:08.609Z,55.90
2023-03-16T13:37:15.466Z,54.70
2023-03-16T13:40:21.800Z,55.10
2023-03-16T13:43:28.732Z,52.70
2023-03-16T13:46:31.945Z,51.20
2023-03-16T13:49:35.189Z,52.10
2023-03-16T13:52:39.541Z,52.30
2023-03-16T13:55:45.340Z,52.70
2023-03-16T13:58:51.220Z,52.80
2023-03-16T14:01:59.706Z,51.50
2023-03-16T14:05:11.652Z,52.60
2023-03-16T14:08:21.777Z,50.00
2023-03-16T14:11:24.708Z,49.20
2023-03-16T14:14:30.793Z,49.10
2023-03-16T14:17:33.942Z,49.70
2023-03-16T14:20:41.295Z,49.30
2023-03-16T14:23:47.780Z,48.20
2023-03-16T14:26:50.931Z,50.50
2023-03-16T14:29:58.991Z,49.70
2023-03-16T14:33:04.411Z,48.10
2023-03-16T14:36:14.646Z,47.60
2023-03-16T14:39:22.802Z,48.10
2023-03-16T14:42:30.072Z,47.30
2023-03-16T14:45:35.827Z,45.50
2023-03-16T14:48:39.306Z,47.10
2023-03-16T14:51:42.298Z,46.60
2023-03-16T14:54:46.852Z,45.30
2023-03-16T14:57:51.301Z,46.10
2023-03-16T15:00:55.008Z,44.40
2023-03-16T15:03:58.012Z,45.60
2023-03-16T15:07:03.890Z,46.60
2023-03-16T15:10:17.912Z,46.70
2023-03-16T15:13:34.884Z,45.90
2023-03-16T15:16:37.940Z,46.80
2023-03-16T15:19:41.141Z,46.40
2023-03-16T15:22:46.074Z,46.60
2023-03-16T15:25:52.646Z,46.30
2023-03-16T15:28:56.000Z,44.90
2023-03-16T15:31:58.838Z,46.50
2023-03-16T15:35:01.687Z,45.70
2023-03-16T15:38:08.684Z,45.10
2023-03-16T15:41:13.234Z,45.20
2023-03-16T15:44:16.314Z,47.30
2023-03-16T15:47:19.315Z,47.50
2023-03-16T15:50:24.696Z,48.10
2023-03-16T15:53:33.620Z,47.60
2023-03-16T15:56:53.341Z,48.50
2023-03-16T15:59:57.348Z,50.00
2023-03-16T16:03:01.308Z,48.50
2023-03-16T16:06:04.387Z,47.10
2023-03-16T16:09:07.361Z,47.90
2023-03-16T16:12:14.373Z,48.80
2023-03-16T16:15:21.693Z,48.90
2023-03-16T16:18:28.500Z,49.90
2023-03-16T16:21:32.628Z,48.90
2023-03-16T16:24:35.536Z,50.30
2023-03-16T16:27:39.896Z,49.60
2023-03-16T16:30:43.129Z,50.00
2023-03-16T16:33:45.967Z,50.80
2023-03-16T16:36:49.404Z,50.70
2023-03-16T16:39:52.609Z,50.50
2023-03-16T16:42:57.021Z,51.00
2023-03-16T16:46:00.777Z,51.00
2023-03-16T16:49:08.894Z,50.70
2023-03-16T16:52:15.211Z,51.40
2023-03-16T16:55:18.889Z,51.90
2023-03-16T16:58:24.925Z,52.20
2023-03-16T17:01:29.776Z,52.50
2023-03-16T17:04:32.799Z,52.40
2023-03-16T17:07:36.180Z,53.10
2023-03-16T17:10:39.751Z,53.10
2023-03-16T17:13:46.202Z,53.40
2023-03-16T17:16:50.549Z,53.70
2023-03-16T17:19:53.496Z,54.30
2023-03-16T17:22:57.840Z,54.60
2023-03-16T17:26:04.446Z,54.50
2023-03-16T17:29:17.435Z,55.00
2023-03-16T17:32:23.212Z,55.00
2023-03-16T17:35:26.285Z,55.00
2023-03-16T17:38:29.469Z,55.20
2023-03-16T17:41:33.136Z,55.40
2023-03-16T17:44:41.891Z,55.90
2023-03-16T17:47:44.788Z,55.80
2023-03-16T17:50:49.584Z,57.00
2023-03-16T17:53:53.888Z,56.70
2023-03-16T17:56:57.059Z,57.20
2023-03-16T18:00:02.642Z,56.90
2023-03-16T18:03:11.759Z,57.10
2023-03-16T18:06:20.278Z,57.40
2023-03-16T18:09:23.232Z,57.60
2023-03-16T18:12:26.362Z,57.70
2023-03-16T18:15:33.868Z,58.70
2023-03-16T18:18:40.030Z,57.90
2023-03-16T18:21:43.794Z,58.30
2023-03-16T18:24:48.446Z,58.30
2023-03-16T18:27:51.317Z,58.30
2023-03-16T18:30:57.404Z,58.40
2023-03-16T18:34:02.524Z,58.70
2023-03-16T18:37:06.246Z,58.90
2023-03-16T18:40:13.320Z,59.00
2023-03-16T18:43:18.158Z,58.60
2023-03-16T18:46:27.919Z,59.40
2023-03-16T18:49:34.634Z,59.50
2023-03-16T18:52:39.212Z,59.50
2023-03-16T18:55:44.954Z,59.70
2023-03-16T18:58:48.251Z,60.00
2023-03-16T19:01:53.984Z,60.40
2023-03-16T19:04:58.488Z,60.30
2023-03-16T19:08:01.793Z,60.10
2023-03-16T19:11:06.171Z,60.30
2023-03-16T19:14:16.389Z,60.10
2023-03-16T19:17:20.618Z,61.00
2023-03-16T19:20:25.912Z,61.20
2023-03-16T19:23:32.932Z,61.50
2023-03-16T19:26:37.180Z,61.40
2023-03-16T19:29:40.888Z,61.70
2023-03-16T19:32:45.215Z,62.20
2023-03-16T19:35:51.893Z,62.40
2023-03-16T19:38:55.619Z,62.10
2023-03-16T19:41:59.872Z,62.80
2023-03-16T19:45:03.215Z,62.30
2023-03-16T19:48:14.070Z,63.70
2023-03-16T19:51:18.600Z,63.00
2023-03-16T19:54:23.741Z,63.20
2023-03-16T19:57:26.874Z,63.20
2023-03-16T20:00:31.029Z,64.20
2023-03-16T20:03:37.430Z,63.90
2023-03-16T20:06:40.552Z,63.90
2023-03-16T20:09:43.509Z,64.10
2023-03-16T20:12:47.216Z,64.40
2023-03-16T20:15:50.080Z,64.80
2023-03-16T20:18:56.697Z,65.00
2023-03-16T20:21:59.746Z,65.00
2023-03-16T20:25:05.233Z,65.20
2023-03-16T20:28:14.863Z,65.40
2023-03-16T20:31:20.781Z,65.80
2023-03-16T20:34:27.449Z,66.00
2023-03-16T20:37:32.239Z,66.40
2023-03-16T20:40:35.116Z,65.90
2023-03-16T20:43:38.708Z,66.40
2023-03-16T20:46:41.811Z,66.30
2023-03-16T20:49:46.229Z,66.10
2023-03-16T20:52:49.233Z,66.00
2023-03-16T20:55:54.502Z,66.20
2023-03-16T20:58:58.999Z,66.70
2023-03-16T21:02:03.178Z,67.40
2023-03-16T21:05:09.675Z,67.60
2023-03-16T21:08:12.735Z,67.40
2023-03-16T21:11:22.522Z,67.30
2023-03-16T21:14:26.345Z,68.10
2023-03-16T21:17:31.894Z,67.90
2023-03-16T21:20:37.052Z,68.20
2023-03-16T21:23:39.905Z,68.50
2023-03-16T21:26:44.832Z,68.60
2023-03-16T21:29:48.241Z,68.50
2023-03-16T21:32:52.201Z,68.50
2023-03-16T21:35:56.610Z,68.90
2023-03-16T21:38:59.462Z,69.00
2023-03-16T21:42:02.313Z,69.40
2023-03-16T21:45:06.038Z,69.90
2023-03-16T21:48:21.413Z,70.10
2023-03-16T21:51:31.152Z,70.20
2023-03-16T21:54:34.019Z,70.40
2023-03-16T21:57:36.829Z,70.50
2023-03-16T22:00:39.957Z,70.60
2023-03-16T22:03:50.833Z,71.30
2023-03-16T22:06:55.362Z,71.40
2023-03-16T22:09:58.270Z,72.20
2023-03-16T22:13:02.183Z,72.40
2023-03-16T22:16:14.542Z,72.50
2023-03-16T22:19:18.114Z,72.70
2023-03-16T22:22:22.554Z,72.10
2023-03-16T22:25:26.574Z,72.50
2023-03-16T22:28:29.954Z,72.50
2023-03-16T22:31:35.651Z,72.70
2023-03-16T22:34:43.712Z,72.50
2023-03-16T22:37:48.280Z,73.10
2023-03-16T22:40:52.252Z,73.20
2023-03-16T22:43:55.256Z,73.80
2023-03-16T22:46:58.084Z,74.30
2023-03-16T22:50:01.286Z,74.30
2023-03-16T22:53:08.140Z,74.60
2023-03-16T22:56:11.204Z,74.70
2023-03-16T22:59:16.906Z,74.90
2023-03-16T23:02:25.206Z,74.80
2023-03-16T23:05:30.292Z,75.30
2023-03-16T23:08:34.730Z,75.70
2023-03-16T23:11:39.712Z,75.90
2023-03-16T23:14:43.302Z,76.20
2023-03-16T23:17:46.335Z,76.70
2023-03-16T23:20:50.170Z,76.30
2023-03-16T23:24:03.473Z,76.20
2023-03-16T23:27:15.541Z,76.70
2023-03-16T23:30:22.548Z,77.10
2023-03-16T23:33:25.496Z,77.00
2023-03-16T23:36:28.433Z,77.20
2023-03-16T23:39:32.611Z,77.20
2023-03-16T23:42:35.685Z,77.40
2023-03-16T23:45:41.748Z,77.80
2023-03-16T23:48:46.292Z,77.90
2023-03-16T23:51:49.416Z,78.70
2023-03-16T23:54:53.596Z,78.80
2023-03-16T23:57:56.494Z,78.60
